Time;durP1;ratioP1;P1;durP2;ratioP2;P2;SDS_P1;SDS_P2;PMS_P1;PMS_P2;Temp;Humidity;BMP_temperature;BMP_pressure;BME280_temperature;BME280_humidity;BME280_pressure;Samples;Min_cycle;Max_cycle;Signal;HPM_P1;HPM_P2
2021/10/12 00:01:53;;;;;;;2.60;2.40;;;10.80;99.90;;;;;;5068593;28;20275;-91
2021/10/12 00:04:20;;;;;;;2.50;2.33;;;10.80;99.90;;;;;;5077291;28;20271;-89
2021/10/12 00:06:48;;;;;;;2.63;2.42;;;10.80;99.90;;;;;;5070310;28;20306;-87
2021/10/12 00:09:16;;;;;;;2.75;2.55;;;10.70;99.90;;;;;;5066168;28;20241;-91
2021/10/12 00:11:43;;;;;;;2.55;2.35;;;10.70;99.90;;;;;;5081833;28;20213;-91
2021/10/12 00:14:10;;;;;;;2.45;2.30;;;10.60;99.90;;;;;;5079608;28;20697;-91
2021/10/12 00:16:37;;;;;;;2.97;2.67;;;10.60;99.90;;;;;;5075532;28;20271;-89
2021/10/12 00:19:05;;;;;;;2.58;2.38;;;10.60;99.90;;;;;;5072810;28;20970;-90
2021/10/12 00:21:32;;;;;;;2.85;2.60;;;10.50;99.90;;;;;;5070761;28;20271;-88
2021/10/12 00:23:59;;;;;;;2.78;2.40;;;10.50;99.90;;;;;;5069438;28;20226;-86
2021/10/12 00:26:27;;;;;;;2.92;2.60;;;10.40;99.90;;;;;;5070836;28;20282;-86
2021/10/12 00:28:54;;;;;;;2.58;2.38;;;10.40;99.90;;;;;;5073367;28;20281;-84
2021/10/12 00:31:21;;;;;;;2.60;2.40;;;10.40;99.90;;;;;;5068847;28;20225;-86
2021/10/12 00:33:48;;;;;;;2.70;2.50;;;10.40;99.90;;;;;;5065581;28;20234;-82
2021/10/12 00:36:15;;;;;;;2.63;2.42;;;10.40;99.90;;;;;;5069567;28;20256;-87
2021/10/12 00:38:42;;;;;;;2.97;2.78;;;10.40;99.90;;;;;;5066971;28;20218;-84
2021/10/12 00:41:10;;;;;;;2.40;2.20;;;10.40;99.90;;;;;;5066493;28;20283;-84
2021/10/12 00:43:39;;;;;;;3.15;2.92;;;10.40;99.90;;;;;;5067550;28;20306;-87
2021/10/12 00:46:06;;;;;;;2.45;2.25;;;10.40;99.90;;;;;;5068909;28;20228;-89
2021/10/12 00:48:34;;;;;;;2.60;2.40;;;10.40;99.90;;;;;;5064755;28;20272;-90
2021/10/12 00:51:01;;;;;;;2.97;2.78;;;10.40;99.90;;;;;;5066225;28;20225;-86
2021/10/12 00:53:29;;;;;;;2.60;2.40;;;10.30;99.90;;;;;;5068353;28;20574;-85
2021/10/12 00:55:57;;;;;;;2.55;2.42;;;10.30;99.90;;;;;;5073481;28;20248;-88
2021/10/12 00:58:24;;;;;;;2.15;2.05;;;10.20;99.90;;;;;;5068990;28;20218;-79
2021/10/12 01:00:53;;;;;;;2.63;2.42;;;10.20;99.90;;;;;;5073357;28;20225;-87
2021/10/12 01:03:20;;;;;;;2.20;2.10;;;10.20;99.90;;;;;;5048466;28;20237;-92
2021/10/12 01:05:47;;;;;;;2.50;2.30;;;10.20;99.90;;;;;;5067740;28;20218;-84
2021/10/12 01:08:14;;;;;;;2.63;2.42;;;10.20;99.90;;;;;;5071805;28;20799;-87
2021/10/12 01:10:42;;;;;;;2.53;2.42;;;10.20;99.90;;;;;;5072837;28;20225;-87
2021/10/12 01:13:09;;;;;;;2.40;2.25;;;10.20;99.90;;;;;;5066430;28;20649;-85
2021/10/12 01:15:36;;;;;;;2.53;2.33;;;10.10;99.90;;;;;;5069411;28;20229;-85
2021/10/12 01:18:11;;;;;;;2.28;2.08;;;10.10;99.90;;;;;;5068791;28;20218;-87
2021/10/12 01:20:39;;;;;;;2.75;2.55;;;10.00;99.90;;;;;;5074166;28;20225;-88
2021/10/12 01:23:08;;;;;;;2.45;2.28;;;10.00;99.90;;;;;;5075122;28;20237;-87
2021/10/12 01:25:35;;;;;;;2.60;2.40;;;9.90;99.90;;;;;;5068701;28;20225;-83
2021/10/12 01:28:03;;;;;;;2.72;2.63;;;9.90;99.90;;;;;;5073260;28;20244;-89
2021/10/12 01:30:30;;;;;;;2.63;2.42;;;9.90;99.90;;;;;;5073370;28;20221;-89
2021/10/12 01:32:57;;;;;;;2.63;2.45;;;9.90;99.90;;;;;;5070204;28;20233;-86
2021/10/12 01:35:25;;;;;;;2.28;2.08;;;9.90;99.90;;;;;;5071845;28;20591;-87
2021/10/12 01:37:52;;;;;;;2.60;2.40;;;9.90;99.90;;;;;;5069650;28;20233;-88
2021/10/12 01:40:20;;;;;;;2.70;2.50;;;9.90;99.90;;;;;;5075751;28;20213;-86
2021/10/12 01:42:47;;;;;;;2.22;2.13;;;9.90;99.90;;;;;;5072724;28;20229;-88
2021/10/12 01:45:15;;;;;;;2.33;2.22;;;9.90;99.90;;;;;;5075308;28;20599;-90
2021/10/12 01:47:43;;;;;;;2.30;2.10;;;9.80;99.90;;;;;;5074388;28;20290;-88
2021/10/12 01:50:12;;;;;;;2.63;2.42;;;9.80;99.90;;;;;;5068884;28;20275;-85
2021/10/12 01:52:40;;;;;;;2.50;2.30;;;9.80;99.90;;;;;;5072016;28;20226;-86
2021/10/12 01:55:08;;;;;;;2.53;2.33;;;9.70;99.90;;;;;;5070063;28;20228;-85
2021/10/12 01:57:37;;;;;;;2.50;2.40;;;9.70;99.90;;;;;;5074691;28;20271;-88
2021/10/12 02:00:07;;;;;;;2.40;2.20;;;9.70;99.90;;;;;;5072176;28;20292;-86
2021/10/12 02:02:34;;;;;;;2.67;2.47;;;9.70;99.90;;;;;;5073071;28;20239;-85
2021/10/12 02:05:01;;;;;;;2.22;2.13;;;9.60;99.90;;;;;;5071004;28;20226;-89
2021/10/12 02:07:28;;;;;;;2.72;2.05;;;9.60;99.90;;;;;;5074233;28;20229;-86
2021/10/12 02:09:56;;;;;;;2.20;2.10;;;9.60;99.90;;;;;;5072386;28;20226;-88
2021/10/12 02:12:23;;;;;;;2.30;2.20;;;9.60;99.90;;;;;;5069980;28;20222;-89
2021/10/12 02:14:52;;;;;;;2.30;2.00;;;9.60;99.90;;;;;;5068282;28;20986;-88
2021/10/12 02:17:19;;;;;;;2.35;2.22;;;9.60;99.90;;;;;;5076435;28;21022;-85
2021/10/12 02:19:46;;;;;;;2.72;2.47;;;9.60;99.90;;;;;;5071238;28;20229;-87
2021/10/12 02:22:13;;;;;;;2.28;2.08;;;9.60;99.90;;;;;;5071177;28;20247;-87
2021/10/12 02:24:40;;;;;;;2.10;2.00;;;9.60;99.90;;;;;;5071180;28;20757;-88
2021/10/12 02:27:07;;;;;;;2.35;2.20;;;9.50;99.90;;;;;;5072768;28;20228;-86
2021/10/12 02:29:35;;;;;;;2.10;2.00;;;9.50;99.90;;;;;;5073220;28;20226;-86
2021/10/12 02:32:04;;;;;;;2.05;1.95;;;9.40;99.90;;;;;;5072730;28;20275;-84
2021/10/12 02:34:31;;;;;;;2.25;2.15;;;9.40;99.90;;;;;;5077547;28;20710;-85
2021/10/12 02:36:58;;;;;;;2.40;2.20;;;9.50;99.90;;;;;;5073210;28;20286;-87
2021/10/12 02:39:25;;;;;;;2.50;2.30;;;9.40;99.90;;;;;;5073111;28;20311;-86
2021/10/12 02:41:52;;;;;;;2.53;2.33;;;9.40;99.90;;;;;;5069798;28;20647;-86
2021/10/12 02:44:19;;;;;;;2.25;2.15;;;9.40;99.90;;;;;;5055288;28;20217;-87
2021/10/12 02:46:46;;;;;;;2.00;1.90;;;9.30;99.90;;;;;;5066161;28;20225;-87
2021/10/12 02:49:15;;;;;;;2.08;1.98;;;9.30;99.90;;;;;;5073015;28;20218;-87
2021/10/12 02:51:42;;;;;;;2.42;2.22;;;9.30;99.90;;;;;;5073617;28;20279;-89
2021/10/12 02:54:09;;;;;;;2.30;2.20;;;9.30;99.90;;;;;;5072476;28;20229;-87
2021/10/12 02:56:36;;;;;;;2.60;2.40;;;9.30;99.90;;;;;;5070788;28;20240;-85
2021/10/12 02:59:03;;;;;;;2.13;2.03;;;9.30;99.90;;;;;;5072729;28;20218;-89
2021/10/12 03:01:30;;;;;;;1.90;1.80;;;9.20;99.90;;;;;;5069039;28;20287;-87
2021/10/12 03:03:58;;;;;;;2.17;2.08;;;9.20;99.90;;;;;;5074542;28;20222;-87
2021/10/12 03:06:26;;;;;;;2.15;2.05;;;9.20;99.90;;;;;;5071631;28;20229;-87
2021/10/12 03:08:53;;;;;;;2.35;1.83;;;9.20;99.90;;;;;;5071363;28;20222;-85
2021/10/12 03:11:20;;;;;;;2.10;2.00;;;9.20;99.90;;;;;;5068441;28;20363;-89
2021/10/12 03:13:47;;;;;;;2.30;2.20;;;9.10;99.90;;;;;;5074397;28;20233;-87
2021/10/12 03:16:15;;;;;;;2.00;1.90;;;9.10;99.90;;;;;;5073523;28;20696;-84
2021/10/12 03:18:42;;;;;;;1.98;1.88;;;9.10;99.90;;;;;;5070138;28;20221;-85
2021/10/12 03:21:09;;;;;;;1.83;1.73;;;9.10;99.90;;;;;;5069600;28;20696;-87
2021/10/12 03:23:37;;;;;;;1.92;1.83;;;9.10;99.90;;;;;;5067126;28;20861;-89
2021/10/12 03:26:04;;;;;;;2.70;1.98;;;9.10;99.90;;;;;;5073455;28;20222;-87
2021/10/12 03:28:32;;;;;;;2.03;1.92;;;9.10;99.90;;;;;;5072150;28;20221;-89
2021/10/12 03:30:59;;;;;;;1.88;1.77;;;9.00;99.90;;;;;;5066838;28;20225;-87
2021/10/12 03:33:26;;;;;;;2.20;2.10;;;9.10;99.90;;;;;;5069535;28;20222;-87
2021/10/12 03:35:56;;;;;;;2.30;2.20;;;9.00;99.90;;;;;;5067606;28;20788;-89
2021/10/12 03:38:23;;;;;;;2.10;2.00;;;9.00;99.90;;;;;;5071736;28;20779;-89
2021/10/12 03:40:52;;;;;;;2.38;2.17;;;9.00;99.90;;;;;;5069909;28;20222;-88
2021/10/12 03:43:19;;;;;;;2.20;2.10;;;9.10;99.90;;;;;;5066707;28;20228;-88
2021/10/12 03:45:46;;;;;;;2.00;1.90;;;9.10;99.90;;;;;;5074517;28;20217;-87
2021/10/12 03:48:13;;;;;;;2.00;1.90;;;9.10;99.90;;;;;;5067476;28;20222;-91
2021/10/12 03:50:41;;;;;;;5.57;4.75;;;9.20;99.90;;;;;;5070230;28;20640;-87
2021/10/12 03:53:08;;;;;;;4.45;4.15;;;9.20;99.90;;;;;;5074583;28;20274;-88
2021/10/12 03:55:36;;;;;;;3.80;3.38;;;9.10;99.90;;;;;;5066578;28;20267;-89
2021/10/12 03:58:04;;;;;;;3.63;3.33;;;9.10;99.90;;;;;;5058573;28;20218;-90
2021/10/12 04:00:31;;;;;;;3.58;3.10;;;9.00;99.90;;;;;;5055797;28;20275;-83
2021/10/12 04:02:59;;;;;;;4.55;2.70;;;9.00;99.90;;;;;;5070450;28;20222;-85
2021/10/12 04:05:26;;;;;;;2.78;2.58;;;9.00;99.90;;;;;;5071339;28;20229;-89
2021/10/12 04:07:53;;;;;;;2.30;2.20;;;9.00;99.90;;;;;;5073261;28;20228;-88
2021/10/12 04:10:20;;;;;;;2.40;2.30;;;9.00;99.90;;;;;;5072038;28;20274;-86
2021/10/12 04:12:47;;;;;;;2.20;2.10;;;9.00;99.90;;;;;;5071312;28;20230;-88
2021/10/12 04:15:16;;;;;;;2.45;2.35;;;9.00;99.90;;;;;;5072800;28;20622;-88
2021/10/12 04:17:43;;;;;;;1.90;1.80;;;9.00;99.90;;;;;;5069973;28;20213;-86
2021/10/12 04:20:11;;;;;;;2.10;2.00;;;8.90;99.90;;;;;;5069056;28;20257;-90
2021/10/12 04:22:39;;;;;;;2.58;2.10;;;8.90;99.90;;;;;;5070137;28;20221;-88
2021/10/12 04:25:07;;;;;;;1.88;1.77;;;8.90;99.90;;;;;;5076843;28;20283;-90
2021/10/12 04:27:34;;;;;;;2.13;2.00;;;8.90;99.90;;;;;;5068455;28;20214;-88
2021/10/12 04:30:01;;;;;;;2.00;1.90;;;8.90;99.90;;;;;;5067968;28;20234;-89
2021/10/12 04:32:30;;;;;;;2.08;1.98;;;8.90;99.90;;;;;;5072611;28;20966;-92
2021/10/12 04:34:57;;;;;;;2.13;2.03;;;8.90;99.90;;;;;;5068737;28;20700;-90
2021/10/12 04:37:24;;;;;;;1.83;1.73;;;9.00;99.90;;;;;;5076742;28;20275;-90
2021/10/12 04:39:51;;;;;;;1.65;1.55;;;8.90;99.90;;;;;;5073344;28;20290;-87
2021/10/12 04:42:18;;;;;;;1.75;1.65;;;8.90;99.90;;;;;;5071775;28;20225;-88
2021/10/12 04:44:49;;;;;;;2.15;2.03;;;8.90;99.90;;;;;;5072376;28;20221;-90
2021/10/12 04:47:16;;;;;;;2.00;1.90;;;8.80;99.90;;;;;;5066068;28;20217;-87
2021/10/12 04:49:45;;;;;;;2.10;2.00;;;8.90;99.90;;;;;;5072082;28;20226;-91
2021/10/12 04:52:13;;;;;;;1.80;1.70;;;8.90;99.90;;;;;;5073200;28;20929;-87
2021/10/12 04:54:40;;;;;;;1.70;1.60;;;8.90;99.90;;;;;;5069360;28;20222;-89
2021/10/12 04:57:07;;;;;;;1.70;1.60;;;8.90;99.90;;;;;;5068273;28;20221;-88
2021/10/12 04:59:34;;;;;;;1.80;1.70;;;8.90;99.90;;;;;;5069628;28;20862;-88
2021/10/12 05:02:01;;;;;;;2.10;2.00;;;8.90;99.90;;;;;;5068236;28;20226;-84
2021/10/12 05:04:28;;;;;;;1.70;1.60;;;8.90;99.90;;;;;;5068391;28;20252;-90
2021/10/12 05:06:57;;;;;;;1.98;1.88;;;8.90;99.90;;;;;;5066440;28;20272;-86
2021/10/12 05:09:24;;;;;;;2.28;1.92;;;8.90;99.90;;;;;;5071802;28;20267;-87
2021/10/12 05:11:51;;;;;;;1.73;1.63;;;8.90;99.90;;;;;;5064983;28;20213;-86
2021/10/12 05:14:19;;;;;;;2.00;1.90;;;9.00;99.90;;;;;;5074649;28;20230;-86
2021/10/12 05:16:48;;;;;;;1.90;1.80;;;8.90;99.90;;;;;;5066920;28;20252;-86
2021/10/12 05:19:15;;;;;;;1.95;1.85;;;8.90;99.90;;;;;;5069784;28;20723;-87
2021/10/12 05:21:42;;;;;;;1.77;1.67;;;8.90;99.90;;;;;;5072351;28;20221;-88
2021/10/12 05:24:11;;;;;;;1.73;1.63;;;8.90;99.90;;;;;;5073602;28;21868;-87
2021/10/12 05:26:38;;;;;;;1.80;1.70;;;8.90;99.90;;;;;;5071369;28;20225;-85
2021/10/12 05:29:06;;;;;;;2.17;2.08;;;9.00;99.90;;;;;;5070436;28;20225;-84
2021/10/12 05:31:33;;;;;;;1.77;1.67;;;9.00;99.90;;;;;;5070351;28;20218;-87
2021/10/12 05:34:00;;;;;;;1.98;1.88;;;9.00;99.90;;;;;;5071978;28;20229;-91
2021/10/12 05:36:27;;;;;;;1.80;1.55;;;9.00;99.90;;;;;;5072126;28;20229;-92
2021/10/12 05:38:54;;;;;;;1.50;1.50;;;9.00;99.90;;;;;;5071710;28;20287;-91
2021/10/12 05:41:22;;;;;;;2.03;1.92;;;9.00;99.90;;;;;;5070961;28;20225;-92
2021/10/12 05:43:49;;;;;;;2.10;2.00;;;9.00;99.90;;;;;;5055322;28;20225;-93
2021/10/12 05:46:18;;;;;;;1.95;1.85;;;9.10;99.90;;;;;;5067985;28;20221;-91
2021/10/12 05:48:45;;;;;;;2.20;2.10;;;9.10;99.90;;;;;;5067661;28;20696;-88
2021/10/12 05:51:16;;;;;;;2.00;1.90;;;9.10;99.90;;;;;;5069526;28;20278;-89
2021/10/12 05:53:45;;;;;;;1.92;1.83;;;9.00;99.90;;;;;;5065275;28;20629;-89
2021/10/12 05:56:15;;;;;;;2.00;1.90;;;9.00;99.90;;;;;;5069885;28;20230;-92
2021/10/12 05:58:46;;;;;;;2.10;1.90;;;9.00;99.90;;;;;;5077247;28;20218;-91
2021/10/12 06:01:13;;;;;;;2.00;1.90;;;9.10;99.90;;;;;;5073377;28;20236;-93
2021/10/12 06:03:41;;;;;;;2.35;2.25;;;9.10;99.90;;;;;;5068059;28;20252;-92
2021/10/12 06:06:08;;;;;;;2.13;2.03;;;9.10;99.90;;;;;;5068402;28;20226;-92
2021/10/12 06:08:36;;;;;;;1.73;1.63;;;9.10;99.90;;;;;;5075653;28;20280;-89
2021/10/12 06:11:04;;;;;;;1.88;1.77;;;9.10;99.90;;;;;;5073646;28;20236;-92
2021/10/12 06:13:32;;;;;;;1.70;1.60;;;9.10;99.90;;;;;;5077306;28;20226;-94
2021/10/12 06:16:01;;;;;;;1.60;1.60;;;9.10;99.90;;;;;;5074320;28;20222;-92
2021/10/12 06:18:29;;;;;;;1.80;1.70;;;9.10;99.90;;;;;;5074359;28;20218;-92
2021/10/12 06:20:57;;;;;;;1.90;1.80;;;9.20;99.90;;;;;;5072828;28;20233;-89
2021/10/12 06:23:25;;;;;;;1.70;1.60;;;9.20;99.90;;;;;;5076691;28;20257;-88
2021/10/12 06:25:52;;;;;;;1.95;1.85;;;9.30;99.90;;;;;;5074246;28;20618;-90
2021/10/12 06:28:21;;;;;;;1.60;1.50;;;9.30;99.90;;;;;;5069649;28;20214;-90
2021/10/12 06:30:48;;;;;;;2.03;1.92;;;9.40;99.90;;;;;;5071938;28;20241;-90
2021/10/12 06:33:17;;;;;;;1.83;1.73;;;9.40;99.90;;;;;;5069727;28;20882;-92
2021/10/12 06:35:44;;;;;;;2.13;2.00;;;9.50;99.90;;;;;;5069026;28;20348;-93
2021/10/12 06:38:12;;;;;;;2.00;1.90;;;9.50;99.90;;;;;;5070663;28;20224;-92
2021/10/12 06:40:39;;;;;;;1.70;1.60;;;9.60;99.90;;;;;;5069651;28;20234;-91
2021/10/12 06:43:06;;;;;;;1.75;1.63;;;9.60;99.90;;;;;;5071564;28;20209;-90
2021/10/12 06:45:34;;;;;;;1.88;1.77;;;9.60;99.90;;;;;;5074050;28;20241;-91
2021/10/12 06:48:01;;;;;;;1.80;1.70;;;9.70;99.90;;;;;;5070613;28;20271;-89
2021/10/12 06:50:30;;;;;;;1.92;1.83;;;9.80;99.90;;;;;;5074613;28;20233;-91
2021/10/12 06:52:57;;;;;;;1.98;1.88;;;9.80;99.90;;;;;;5072656;28;20234;-90
2021/10/12 06:55:25;;;;;;;1.77;1.67;;;9.80;99.90;;;;;;5069220;28;20276;-81
2021/10/12 06:57:52;;;;;;;1.83;1.73;;;9.80;99.90;;;;;;5066781;28;20276;-89
2021/10/12 07:00:20;;;;;;;1.83;1.73;;;9.80;99.90;;;;;;5055144;28;20680;-91
2021/10/12 07:02:48;;;;;;;1.50;1.38;;;9.80;99.90;;;;;;5073611;28;20218;-92
2021/10/12 07:05:17;;;;;;;1.77;1.67;;;9.80;99.90;;;;;;5071875;28;20272;-92
2021/10/12 07:07:46;;;;;;;1.70;1.60;;;9.80;99.90;;;;;;5079614;28;20231;-90
2021/10/12 07:10:14;;;;;;;2.03;1.60;;;9.90;99.90;;;;;;5073983;28;20283;-92
2021/10/12 07:12:41;;;;;;;1.73;1.63;;;9.90;99.90;;;;;;5067045;28;20748;-91
2021/10/12 07:15:11;;;;;;;1.90;1.80;;;10.10;99.90;;;;;;5066932;28;20637;-93
2021/10/12 07:17:39;;;;;;;1.45;1.40;;;10.20;99.90;;;;;;5060642;28;20218;-91
2021/10/12 07:20:08;;;;;;;1.90;1.80;;;10.30;99.90;;;;;;5063554;28;20252;-91
2021/10/12 07:22:36;;;;;;;2.20;2.10;;;10.30;99.90;;;;;;5062968;28;20222;-91
2021/10/12 07:25:06;;;;;;;2.60;2.50;;;10.30;99.90;;;;;;5063199;28;20725;-91
2021/10/12 07:27:34;;;;;;;3.80;2.75;;;10.20;99.90;;;;;;5061800;28;20222;-90
2021/10/12 07:30:02;;;;;;;2.97;2.50;;;9.90;99.90;;;;;;5063590;28;20316;-91
2021/10/12 07:32:29;;;;;;;2.70;2.50;;;9.70;99.90;;;;;;5060212;28;20221;-89
2021/10/12 07:34:56;;;;;;;2.35;2.25;;;9.70;99.90;;;;;;5058564;28;20229;-90
2021/10/12 07:37:23;;;;;;;2.50;2.30;;;9.60;99.90;;;;;;5058891;28;20221;-89
2021/10/12 07:39:51;;;;;;;2.30;2.20;;;9.60;99.90;;;;;;5058108;28;20243;-86
2021/10/12 07:42:19;;;;;;;2.25;2.05;;;9.60;99.90;;;;;;5063341;28;20226;-91
2021/10/12 07:44:46;;;;;;;1.83;1.73;;;9.80;99.90;;;;;;5062712;28;20221;-89
2021/10/12 07:47:13;;;;;;;2.20;2.10;;;10.10;99.90;;;;;;5063042;28;20756;-89
2021/10/12 07:49:40;;;;;;;2.13;2.03;;;10.30;99.90;;;;;;5060236;28;20226;-90
2021/10/12 07:52:08;;;;;;;1.98;1.88;;;10.60;99.90;;;;;;5059345;28;20314;-90
2021/10/12 07:57:25;;;;;;;1.92;1.83;;;10.70;99.90;;;;;;5067556;28;20372;-90
2021/10/12 07:59:52;;;;;;;2.40;2.20;;;10.60;99.90;;;;;;5062046;28;20737;-90
2021/10/12 08:02:19;;;;;;;2.13;2.03;;;10.40;99.90;;;;;;5039189;28;20214;-88
2021/10/12 08:04:47;;;;;;;1.85;1.75;;;10.30;99.90;;;;;;5062813;28;20221;-92
2021/10/12 08:07:15;;;;;;;1.90;1.80;;;10.30;99.90;;;;;;5061393;28;20236;-89
2021/10/12 08:09:42;;;;;;;2.13;1.90;;;10.30;99.90;;;;;;5062153;28;20218;-92
2021/10/12 08:12:09;;;;;;;2.53;2.20;;;10.30;99.90;;;;;;5060009;28;20237;-92
2021/10/12 08:14:40;;;;;;;2.67;2.47;;;10.30;99.90;;;;;;5061793;28;20226;-89
2021/10/12 08:17:08;;;;;;;2.55;2.35;;;10.40;99.90;;;;;;5056485;28;20222;-91
2021/10/12 08:19:35;;;;;;;3.47;1.85;;;10.50;99.90;;;;;;5059194;28;20229;-87
2021/10/12 08:22:02;;;;;;;3.45;2.60;;;10.90;99.90;;;;;;5061328;28;20224;-90
2021/10/12 08:24:30;;;;;;;3.60;2.00;;;11.30;99.90;;;;;;5056353;28;20226;-90
2021/10/12 08:26:57;;;;;;;2.30;2.10;;;11.70;99.90;;;;;;5063853;28;20217;-87
2021/10/12 08:29:24;;;;;;;2.55;2.33;;;12.00;99.90;;;;;;5060325;28;20222;-89
2021/10/12 08:31:52;;;;;;;2.25;2.15;;;12.20;99.90;;;;;;5059801;28;20225;-89
2021/10/12 08:34:19;;;;;;;6.18;2.10;;;12.10;99.90;;;;;;5057877;28;20259;-90
2021/10/12 08:36:47;;;;;;;2.80;2.50;;;11.70;99.90;;;;;;5060277;28;20225;-88
2021/10/12 08:39:16;;;;;;;3.75;2.80;;;11.30;99.90;;;;;;5061253;28;20225;-89
2021/10/12 08:41:48;;;;;;;3.95;3.45;;;11.00;99.90;;;;;;5060368;28;20883;-90
2021/10/12 08:44:15;;;;;;;2.92;2.60;;;10.80;99.90;;;;;;5058342;28;20317;-90
2021/10/12 08:46:44;;;;;;;3.70;2.83;;;10.70;99.90;;;;;;5059012;28;20250;-92
2021/10/12 08:49:13;;;;;;;3.20;2.90;;;10.70;99.90;;;;;;5062350;28;20310;-90
2021/10/12 08:51:43;;;;;;;4.00;2.85;;;10.70;99.90;;;;;;5059717;28;20210;-88
2021/10/12 08:54:12;;;;;;;4.55;2.55;;;10.60;99.90;;;;;;5064632;28;20241;-90
2021/10/12 08:56:40;;;;;;;3.08;2.78;;;10.50;99.90;;;;;;5057731;28;20236;-89
2021/10/12 08:59:07;;;;;;;3.33;3.03;;;10.40;99.90;;;;;;5060941;28;20233;-90
2021/10/12 09:01:56;;;;;;;3.47;3.17;;;10.40;99.90;;;;;;5060461;28;20279;-88
2021/10/12 09:04:25;;;;;;;2.97;2.60;;;10.40;99.90;;;;;;5009026;28;20301;-91
2021/10/12 09:06:54;;;;;;;2.45;2.25;;;10.40;99.90;;;;;;5062753;28;20313;-90
2021/10/12 09:09:34;;;;;;;2.80;2.60;;;10.50;99.90;;;;;;5058271;28;20225;-89
2021/10/12 09:12:01;;;;;;;2.88;2.67;;;10.60;99.90;;;;;;5061202;28;20267;-90
2021/10/12 09:14:29;;;;;;;2.20;2.10;;;10.80;99.90;;;;;;5056472;28;20237;-88
2021/10/12 09:17:05;;;;;;;2.70;2.50;;;10.80;99.90;;;;;;5060024;28;20232;-89
2021/10/12 09:19:34;;;;;;;3.15;2.78;;;10.80;99.90;;;;;;5044258;28;21044;-88
2021/10/12 09:22:06;;;;;;;2.65;2.45;;;10.80;99.90;;;;;;5066079;28;20316;-89
2021/10/12 09:24:39;;;;;;;2.53;2.33;;;10.80;99.90;;;;;;5062968;28;20765;-90
2021/10/12 09:27:09;;;;;;;1.73;1.60;;;10.90;99.90;;;;;;5066951;28;20226;-90
2021/10/12 09:29:38;;;;;;;2.25;2.15;;;11.00;99.90;;;;;;5058346;28;20221;-90
2021/10/12 09:32:08;;;;;;;1.98;1.77;;;11.10;99.90;;;;;;5063250;28;20304;-89
2021/10/12 09:34:37;;;;;;;2.40;2.20;;;11.20;99.90;;;;;;5058226;28;20275;-90
2021/10/12 09:37:06;;;;;;;1.95;1.85;;;11.30;99.90;;;;;;5057204;28;20234;-88
2021/10/12 09:39:34;;;;;;;3.15;2.90;;;11.30;99.90;;;;;;5061286;28;20221;-91
2021/10/12 09:42:03;;;;;;;5.18;3.35;;;11.30;99.90;;;;;;5065502;28;20221;-93
2021/10/12 09:44:30;;;;;;;3.78;3.30;;;11.20;99.90;;;;;;5070154;28;20217;-89
2021/10/12 09:47:08;;;;;;;4.57;3.22;;;11.10;99.90;;;;;;5064351;28;20276;-89
2021/10/12 09:49:37;;;;;;;3.90;3.45;;;11.10;99.90;;;;;;5064753;28;20317;-90
2021/10/12 09:52:06;;;;;;;4.03;2.65;;;11.10;99.90;;;;;;5065003;28;20226;-89
2021/10/12 09:54:35;;;;;;;6.90;3.17;;;11.00;99.90;;;;;;5062190;28;20291;-90
2021/10/12 09:57:04;;;;;;;2.47;2.20;;;11.00;99.90;;;;;;5063446;28;20232;-88
2021/10/12 09:59:33;;;;;;;3.38;3.08;;;10.90;99.90;;;;;;5068598;28;20711;-91
2021/10/12 10:02:02;;;;;;;3.83;3.15;;;10.80;99.90;;;;;;5059354;28;21025;-91
2021/10/12 10:04:30;;;;;;;3.20;3.00;;;10.80;99.90;;;;;;5063073;28;20230;-92
2021/10/12 10:07:04;;;;;;;5.57;3.47;;;10.80;99.90;;;;;;5062790;28;20279;-91
2021/10/12 10:09:34;;;;;;;3.20;2.90;;;11.00;99.90;;;;;;5063986;28;20302;-87
2021/10/12 10:12:02;;;;;;;3.38;3.08;;;11.10;99.90;;;;;;5061646;28;20882;-89
2021/10/12 10:14:29;;;;;;;3.10;2.78;;;11.20;99.90;;;;;;5069148;27;20909;-91
2021/10/12 10:17:00;;;;;;;4.78;3.42;;;11.40;99.90;;;;;;5063568;28;20287;-91
2021/10/12 10:19:30;;;;;;;3.25;2.65;;;11.60;99.90;;;;;;5065650;28;20221;-90
2021/10/12 10:21:57;;;;;;;3.20;2.80;;;11.70;99.90;;;;;;5065515;28;20217;-93
2021/10/12 10:24:43;;;;;;;2.90;2.65;;;11.90;99.90;;;;;;5064871;28;20471;-80
2021/10/12 10:27:33;;;;;;;4.20;3.00;;;12.00;99.90;;;;;;5018474;28;20345;-90
2021/10/12 10:30:31;;;;;;;2.95;2.75;;;12.20;99.90;;;;;;5066387;28;20225;-92
2021/10/12 10:33:00;;;;;;;2.70;2.50;;;12.20;99.90;;;;;;5020573;28;20230;-93
2021/10/12 10:35:42;;;;;;;3.97;2.83;;;12.40;99.90;;;;;;5062805;28;20233;-93
2021/10/12 10:38:33;;;;;;;2.85;2.55;;;12.60;99.90;;;;;;5061161;28;20658;-94
2021/10/12 10:41:24;;;;;;;4.60;2.70;;;13.10;99.90;;;;;;5065683;28;20259;-92
2021/10/12 10:43:54;;;;;;;5.32;3.10;;;13.60;99.90;;;;;;5062406;28;20225;-92
2021/10/12 10:46:40;;;;;;;2.90;2.67;;;13.80;99.90;;;;;;5065028;28;20222;-92
2021/10/12 10:49:13;;;;;;;2.65;2.45;;;14.10;99.90;;;;;;5062448;28;20316;-91
2021/10/12 10:51:51;;;;;;;4.18;3.17;;;14.30;99.90;;;;;;5063004;28;20225;-89
2021/10/12 10:55:02;;;;;;;4.70;2.83;;;14.50;99.90;;;;;;5058174;28;20234;-90
2021/10/12 10:57:32;;;;;;;2.60;2.40;;;14.50;99.90;;;;;;5062200;28;20718;-86
2021/10/12 11:00:38;;;;;;;3.15;2.55;;;14.50;99.90;;;;;;5058772;28;20251;-88
2021/10/12 11:03:06;;;;;;;2.60;2.40;;;14.50;99.90;;;;;;5062430;28;21834;-89
2021/10/12 11:05:50;;;;;;;4.05;2.40;;;14.70;99.90;;;;;;5059664;28;20231;-87
2021/10/12 11:08:21;;;;;;;4.03;2.72;;;14.80;99.90;;;;;;5033541;28;20418;-88
2021/10/12 11:10:57;;;;;;;3.33;2.17;;;15.00;99.90;;;;;;5063355;28;20237;-94
2021/10/12 11:13:31;;;;;;;2.25;2.08;;;15.40;99.90;;;;;;5067704;28;20251;-91
2021/10/12 11:15:58;;;;;;;2.80;2.50;;;15.50;99.90;;;;;;5062164;28;20214;-87
2021/10/12 11:18:25;;;;;;;5.43;2.60;;;15.60;99.90;;;;;;5059761;28;20237;-90
2021/10/12 11:20:55;;;;;;;3.03;2.15;;;15.50;99.90;;;;;;5056960;28;20230;-92
2021/10/12 11:23:25;;;;;;;2.75;2.42;;;15.50;99.90;;;;;;5062542;28;20245;-88
2021/10/12 11:25:57;;;;;;;3.28;2.58;;;15.50;99.90;;;;;;5067412;28;20233;-91
2021/10/12 11:28:26;;;;;;;4.80;2.47;;;15.60;99.90;;;;;;5060184;28;20248;-85
2021/10/12 11:30:55;;;;;;;4.45;2.55;;;15.70;99.90;;;;;;5062608;28;20238;-92
2021/10/12 11:33:37;;;;;;;4.57;2.70;;;15.60;99.90;;;;;;5059998;28;20693;-90
2021/10/12 11:36:08;;;;;;;3.25;2.70;;;15.40;99.90;;;;;;5066343;28;20229;-89
2021/10/12 11:38:37;;;;;;;2.80;2.60;;;15.40;99.90;;;;;;5067279;28;20213;-92
2021/10/12 11:41:19;;;;;;;2.33;2.13;;;15.40;99.90;;;;;;5068624;28;20221;-91
2021/10/12 11:43:48;;;;;;;3.53;2.47;;;15.60;99.90;;;;;;5069255;28;20224;-93
2021/10/12 11:46:23;;;;;;;3.78;2.63;;;15.50;99.90;;;;;;5070097;28;20299;-93
2021/10/12 11:48:50;;;;;;;2.40;2.20;;;15.40;99.90;;;;;;5056333;28;20228;-90
2021/10/12 11:51:21;;;;;;;2.75;2.42;;;15.30;99.90;;;;;;5069082;28;20243;-90
2021/10/12 11:53:49;;;;;;;2.50;2.13;;;15.40;99.90;;;;;;5069629;28;20278;-91
2021/10/12 11:56:18;;;;;;;4.68;2.10;;;15.50;99.90;;;;;;5067308;28;20229;-93
2021/10/12 11:58:45;;;;;;;3.60;2.10;;;15.50;99.90;;;;;;5072813;28;20266;-92
2021/10/12 12:01:17;;;;;;;2.72;2.15;;;15.50;99.90;;;;;;5063501;28;20230;-90
2021/10/12 12:03:46;;;;;;;2.35;2.15;;;15.60;99.90;;;;;;5063749;28;20298;-91
2021/10/12 12:06:14;;;;;;;2.55;1.95;;;15.50;99.90;;;;;;5063688;28;20221;-91
2021/10/12 12:08:42;;;;;;;2.95;2.17;;;15.50;99.90;;;;;;5064101;28;20222;-91
2021/10/12 12:11:11;;;;;;;2.10;2.00;;;15.40;99.90;;;;;;5068239;28;20213;-92
2021/10/12 12:13:38;;;;;;;1.90;1.80;;;15.40;99.90;;;;;;5065906;28;20222;-92
2021/10/12 12:16:06;;;;;;;1.83;1.73;;;15.90;99.90;;;;;;5062255;28;20226;-91
2021/10/12 12:18:41;;;;;;;2.25;2.05;;;16.50;99.90;;;;;;5061685;28;20665;-92
2021/10/12 12:21:10;;;;;;;2.83;2.20;;;16.80;99.90;;;;;;5066915;28;20310;-93
2021/10/12 12:23:40;;;;;;;3.03;1.90;;;17.20;99.90;;;;;;5067151;28;20217;-90
2021/10/12 12:26:09;;;;;;;4.53;2.05;;;16.90;99.90;;;;;;5062214;28;20224;-92
2021/10/12 12:28:37;;;;;;;2.10;1.90;;;16.70;99.90;;;;;;5060041;28;20271;-92
2021/10/12 12:31:21;;;;;;;2.30;1.88;;;16.50;99.90;;;;;;5063819;28;20237;-91
2021/10/12 12:33:49;;;;;;;2.75;1.65;;;16.30;99.90;;;;;;5056771;28;21029;-87
2021/10/12 12:36:19;;;;;;;2.10;1.90;;;16.40;99.90;;;;;;5058168;28;20232;-88
2021/10/12 12:38:47;;;;;;;2.03;1.83;;;16.70;99.90;;;;;;5056500;28;20464;-88
2021/10/12 12:41:19;;;;;;;1.95;1.85;;;17.10;99.90;;;;;;5059327;28;20307;-89
2021/10/12 12:43:54;;;;;;;2.97;2.15;;;17.10;99.90;;;;;;5056371;28;20775;-87
2021/10/12 12:46:22;;;;;;;1.67;1.58;;;17.00;99.90;;;;;;5055168;28;20287;-85
2021/10/12 12:49:06;;;;;;;2.20;1.70;;;16.80;99.90;;;;;;5058099;28;20308;-89
2021/10/12 12:51:37;;;;;;;2.20;2.10;;;16.80;99.90;;;;;;5054947;28;20644;-87
2021/10/12 12:54:04;;;;;;;1.80;1.70;;;16.80;99.90;;;;;;5058524;28;20229;-88
2021/10/12 12:56:37;;;;;;;3.45;2.08;;;16.80;99.90;;;;;;5056150;28;20287;-87
2021/10/12 12:59:07;;;;;;;2.00;1.88;;;17.00;99.90;;;;;;5056632;28;20249;-87
2021/10/12 13:01:34;;;;;;;2.25;2.05;;;17.10;99.90;;;;;;5053886;28;20785;-88
2021/10/12 13:04:02;;;;;;;3.97;2.15;;;17.10;99.90;;;;;;5057896;28;20225;-88